createdAt,value
2022-09-12T00:02:02.198Z,153938.19
2022-09-12T00:04:32.107Z,153901.81
2022-09-12T00:07:02.168Z,153868.09
2022-09-12T00:09:32.934Z,153866.75
2022-09-12T00:12:03.146Z,153870.66
2022-09-12T00:14:33.595Z,153870.66
2022-09-12T00:17:06.575Z,153851.19
2022-09-12T00:19:36.935Z,153860.28
2022-09-12T00:22:07.572Z,153874.56
2022-09-12T00:24:37.952Z,153857.72
2022-09-12T00:27:08.714Z,153859.00
2022-09-12T00:29:39.118Z,153860.28
2022-09-12T00:32:12.125Z,153853.81
2022-09-12T00:34:42.172Z,153861.56
2022-09-12T00:37:12.372Z,153860.28
2022-09-12T00:39:42.612Z,153831.72
2022-09-12T00:42:13.670Z,153829.16
2022-09-12T00:44:50.808Z,153831.72
2022-09-12T00:47:30.452Z,153843.44
2022-09-12T00:50:07.345Z,153839.53
2022-09-12T00:52:42.385Z,153836.91
2022-09-12T00:55:15.906Z,153838.25
2022-09-12T00:57:58.976Z,153787.59
2022-09-12T01:00:31.460Z,153822.63
2022-09-12T01:03:08.107Z,153795.41
2022-09-12T01:05:45.071Z,153809.69
2022-09-12T01:08:15.600Z,153792.78
2022-09-12T01:10:46.341Z,153808.41
2022-09-12T01:13:16.503Z,153795.41
2022-09-12T01:15:46.952Z,153796.69
2022-09-12T01:18:28.171Z,153803.22
2022-09-12T01:21:08.002Z,153808.41
2022-09-12T01:24:16.933Z,153765.56
2022-09-12T01:27:21.747Z,153753.91
2022-09-12T01:30:26.926Z,153764.28
2022-09-12T01:33:13.439Z,153778.56
2022-09-12T01:35:54.595Z,153752.59
2022-09-12T01:38:30.666Z,153746.09
2022-09-12T01:41:11.825Z,153756.47
2022-09-12T01:43:51.309Z,153744.81
2022-09-12T01:46:24.665Z,153744.81
2022-09-12T01:49:01.146Z,153746.09
2022-09-12T01:51:37.923Z,153742.22
2022-09-12T01:54:12.650Z,153712.38
2022-09-12T01:56:45.241Z,153692.84
2022-09-12T01:59:20.904Z,153703.28
2022-09-12T02:01:56.596Z,153703.28
2022-09-12T02:04:34.363Z,153708.47
2022-09-12T02:07:11.419Z,153704.63
2022-09-12T02:09:48.557Z,153718.91
2022-09-12T02:12:22.215Z,153715.00
2022-09-12T02:14:54.789Z,153718.91
2022-09-12T02:17:27.643Z,153718.91
2022-09-12T02:20:06.355Z,153686.38
2022-09-12T02:22:40.389Z,153689.00
2022-09-12T02:25:14.772Z,153698.03
2022-09-12T02:27:49.955Z,153704.63
2022-09-12T02:30:23.422Z,153685.09
2022-09-12T02:33:03.807Z,153691.56
2022-09-12T02:35:47.240Z,153712.38
2022-09-12T02:38:28.148Z,153704.63
2022-09-12T02:40:58.715Z,153707.19
2022-09-12T02:43:28.894Z,153695.47
2022-09-12T02:45:59.189Z,153686.38
2022-09-12T02:48:33.435Z,153692.84
2022-09-12T02:51:06.986Z,153690.28
2022-09-12T02:53:36.988Z,153689.00
2022-09-12T02:56:11.325Z,153698.03
2022-09-12T02:58:42.038Z,153674.72
2022-09-12T03:01:21.255Z,153681.22
2022-09-12T03:04:08.424Z,153678.59
2022-09-12T03:06:49.237Z,153678.59
2022-09-12T03:09:24.219Z,153663.03
2022-09-12T03:12:14.860Z,153677.31
2022-09-12T03:15:03.094Z,153660.47
2022-09-12T03:17:40.938Z,153668.22
2022-09-12T03:20:15.289Z,153644.91
2022-09-12T03:22:56.758Z,153650.09
2022-09-12T03:25:33.949Z,153647.47
2022-09-12T03:28:09.523Z,153651.38
2022-09-12T03:30:43.094Z,153668.22
2022-09-12T03:33:14.447Z,153635.81
2022-09-12T03:35:45.102Z,153647.47
2022-09-12T03:38:18.353Z,153624.09
2022-09-12T03:40:54.113Z,153637.09
2022-09-12T03:43:24.815Z,153609.88
2022-09-12T03:45:55.248Z,153617.63
2022-09-12T03:48:25.356Z,153604.72
2022-09-12T03:50:55.416Z,153603.38
2022-09-12T03:53:28.170Z,153596.91
2022-09-12T03:55:58.564Z,153585.25
2022-09-12T03:58:32.594Z,153574.81
2022-09-12T04:01:03.082Z,153593.00
2022-09-12T04:03:33.232Z,153556.72
2022-09-12T04:06:03.362Z,153545.00
2022-09-12T04:08:36.024Z,153539.81
2022-09-12T04:11:07.123Z,153528.16
2022-09-12T04:13:38.496Z,153517.81
2022-09-12T04:16:09.867Z,153545.00
2022-09-12T04:18:40.482Z,153530.78
2022-09-12T04:21:12.292Z,153528.16
2022-09-12T04:23:45.041Z,153537.25
2022-09-12T04:26:17.595Z,153523.00
2022-09-12T04:28:48.908Z,153511.34
2022-09-12T04:31:22.833Z,153506.16
2022-09-12T04:33:58.803Z,153508.72
2022-09-12T04:36:30.211Z,153512.63
2022-09-12T04:39:04.470Z,153521.69
2022-09-12T04:41:37.191Z,153526.88
2022-09-12T04:44:09.684Z,153538.53
2022-09-12T04:46:43.254Z,153552.81
2022-09-12T04:49:14.332Z,153556.72
2022-09-12T04:51:45.678Z,153567.06
2022-09-12T04:54:20.759Z,153565.78
2022-09-12T04:56:52.909Z,153586.53
2022-09-12T04:59:24.489Z,153577.44
2022-09-12T05:01:54.621Z,153585.25
2022-09-12T05:04:24.679Z,153583.91
2022-09-12T05:06:54.956Z,153594.28
2022-09-12T05:09:27.692Z,153609.88
2022-09-12T05:12:05.614Z,153629.28
2022-09-12T05:14:36.556Z,153629.28
2022-09-12T05:17:07.929Z,153641.00
2022-09-12T05:19:38.063Z,153669.53
2022-09-12T05:22:08.188Z,153690.28
2022-09-12T05:24:47.307Z,153703.28
2022-09-12T05:27:20.248Z,153712.38
2022-09-12T05:29:50.272Z,153712.38
2022-09-12T05:32:20.880Z,153734.44
2022-09-12T05:34:51.059Z,153755.19
2022-09-12T05:37:21.079Z,153785.03
2022-09-12T05:39:53.837Z,153779.84
2022-09-12T05:42:24.151Z,153792.78
2022-09-12T05:44:54.373Z,153803.22
2022-09-12T05:47:24.601Z,153827.88
2022-09-12T05:49:54.988Z,153834.34
2022-09-12T05:52:25.072Z,153848.63
2022-09-12T05:54:57.853Z,153871.94
2022-09-12T05:57:27.895Z,153890.13
2022-09-12T05:59:58.392Z,153910.91
2022-09-12T06:02:29.031Z,153936.91
2022-09-12T06:04:59.099Z,153965.41
2022-09-12T06:07:29.832Z,153977.13
2022-09-12T06:10:02.600Z,153996.59
2022-09-12T06:12:32.952Z,153988.78
2022-09-12T06:15:03.048Z,154026.50
2022-09-12T06:17:33.104Z,154064.13
2022-09-12T06:20:04.225Z,154092.72
2022-09-12T06:22:34.549Z,154130.38
2022-09-12T06:25:08.807Z,154156.34
2022-09-12T06:27:39.157Z,154183.59
2022-09-12T06:30:10.994Z,154220.00
2022-09-12T06:32:41.275Z,154251.16
2022-09-12T06:35:12.590Z,154314.84
2022-09-12T06:37:42.973Z,154317.47
2022-09-12T06:40:17.574Z,154301.81
2022-09-12T06:42:48.804Z,154351.25
2022-09-12T06:45:35.297Z,154379.84
2022-09-12T06:48:06.074Z,154411.03
2022-09-12T06:50:36.363Z,154421.41
2022-09-12T06:53:06.663Z,154377.22
2022-09-12T06:55:39.686Z,154394.16
2022-09-12T06:58:10.044Z,154455.22
2022-09-12T07:00:40.613Z,154422.69
2022-09-12T07:03:11.426Z,154509.81
2022-09-12T07:05:41.736Z,154539.72
2022-09-12T07:08:12.357Z,154528.03
2022-09-12T07:10:45.712Z,154598.28
2022-09-12T07:13:15.856Z,154613.88
2022-09-12T07:15:46.364Z,154676.25
2022-09-12T07:18:16.470Z,154754.31
2022-09-12T07:20:46.631Z,154773.84
2022-09-12T07:23:16.940Z,154708.81
2022-09-12T07:25:57.296Z,154758.22
2022-09-12T07:28:27.869Z,154741.34
2022-09-12T07:31:00.033Z,154812.88
2022-09-12T07:33:31.396Z,154864.94
2022-09-12T07:36:06.034Z,154897.47
2022-09-12T07:38:36.865Z,154930.00
2022-09-12T07:41:17.143Z,155006.81
2022-09-12T07:43:47.686Z,155155.25
2022-09-12T07:46:18.609Z,155133.09
2022-09-12T07:48:52.990Z,155129.22
2022-09-12T07:51:24.424Z,154952.13
2022-09-12T07:53:55.032Z,154845.38
2022-09-12T07:56:32.687Z,154923.50
2022-09-12T07:59:04.895Z,154972.94
2022-09-12T08:01:35.338Z,155095.38
2022-09-12T08:04:06.092Z,155070.59
2022-09-12T08:06:37.464Z,155095.38
2022-09-12T08:09:08.704Z,155078.38
2022-09-12T08:11:41.710Z,155130.53
2022-09-12T08:14:11.945Z,155165.69
2022-09-12T08:16:42.325Z,155165.69
2022-09-12T08:19:12.388Z,155247.69
2022-09-12T08:21:42.509Z,155239.91
2022-09-12T08:24:16.040Z,155211.25
2022-09-12T08:26:48.767Z,155277.66
2022-09-12T08:29:18.956Z,155338.94
2022-09-12T08:31:51.097Z,155467.94
2022-09-12T08:34:24.984Z,155384.53
2022-09-12T08:36:56.226Z,155508.31
2022-09-12T08:39:26.974Z,155437.97
2022-09-12T08:42:05.003Z,155470.50
2022-09-12T08:44:59.234Z,155516.09
2022-09-12T08:47:33.697Z,155467.94
2022-09-12T08:50:09.714Z,155394.94
2022-09-12T08:52:46.454Z,155421.00
2022-09-12T08:55:28.901Z,155499.19
2022-09-12T08:58:02.733Z,155500.47
2022-09-12T09:00:43.215Z,155506.97
2022-09-12T09:03:47.046Z,155411.88
2022-09-12T09:06:32.633Z,155495.28
2022-09-12T09:09:12.157Z,155474.44
2022-09-12T09:11:56.074Z,155573.53
2022-09-12T09:14:49.126Z,155593.09
2022-09-12T09:17:25.524Z,155653.03
2022-09-12T09:20:05.296Z,155572.19
2022-09-12T09:22:41.954Z,155634.78
2022-09-12T09:25:23.013Z,155611.28
2022-09-12T09:28:01.133Z,155679.09
2022-09-12T09:30:35.983Z,155699.94
2022-09-12T09:33:08.157Z,155752.13
2022-09-12T09:35:46.580Z,155637.41
2022-09-12T09:38:26.433Z,155823.88
2022-09-12T09:41:10.311Z,155707.78
2022-09-12T09:43:41.887Z,155664.75
2022-09-12T09:46:15.193Z,155645.19
2022-09-12T09:48:48.019Z,155771.75
2022-09-12T09:51:21.553Z,155775.63
2022-09-12T09:53:55.777Z,155869.53
2022-09-12T09:56:32.973Z,155866.94
2022-09-12T09:59:13.343Z,155911.28
2022-09-12T10:01:58.281Z,155797.81
2022-09-12T10:04:30.896Z,155856.50
2022-09-12T10:07:03.233Z,155756.00
2022-09-12T10:09:36.291Z,155857.81
2022-09-12T10:12:23.793Z,155938.66
2022-09-12T10:15:01.463Z,155863.00
2022-09-12T10:17:42.700Z,156015.66
2022-09-12T10:20:32.692Z,155977.84
2022-09-12T10:23:05.230Z,156054.81
2022-09-12T10:25:36.403Z,155904.72
2022-09-12T10:28:06.632Z,155857.81
2022-09-12T10:30:37.306Z,155727.34
2022-09-12T10:33:15.357Z,155698.66
2022-09-12T10:35:48.835Z,155838.22
2022-09-12T10:38:24.974Z,155913.88
2022-09-12T10:41:02.227Z,155983.06
2022-09-12T10:43:40.707Z,155887.78
2022-09-12T10:46:27.125Z,155870.81
2022-09-12T10:49:25.294Z,156026.13
2022-09-12T10:51:56.886Z,156048.28
2022-09-12T10:54:30.187Z,156009.16
2022-09-12T10:57:26.803Z,156011.78
2022-09-12T11:00:17.257Z,155954.31
2022-09-12T11:02:55.540Z,156041.78
2022-09-12T11:05:44.841Z,155996.13
2022-09-12T11:08:38.947Z,156144.84
2022-09-12T11:11:19.280Z,156259.75
2022-09-12T11:14:04.412Z,155951.72
2022-09-12T11:16:43.332Z,155783.47
2022-09-12T11:19:29.820Z,155782.16
2022-09-12T11:22:32.240Z,155659.53
2022-09-12T11:25:15.423Z,155743.00
2022-09-12T11:27:58.273Z,155750.78
2022-09-12T11:30:28.863Z,155809.53
2022-09-12T11:33:16.647Z,155778.25
2022-09-12T11:35:55.278Z,155754.72
2022-09-12T11:38:46.297Z,155759.91
2022-09-12T11:41:22.273Z,155722.13
2022-09-12T11:43:57.705Z,155716.94
2022-09-12T11:46:34.701Z,155756.00
2022-09-12T11:49:12.103Z,155598.28
2022-09-12T11:51:48.076Z,155475.72
2022-09-12T11:54:28.133Z,155536.94
2022-09-12T11:57:08.567Z,155566.97
2022-09-12T11:59:47.414Z,155566.97
2022-09-12T12:02:25.242Z,155566.97
2022-09-12T12:05:22.109Z,155506.97
2022-09-12T12:07:56.973Z,155574.81
2022-09-12T12:10:37.031Z,155600.88
2022-09-12T12:13:14.098Z,155643.91
2022-09-12T12:15:50.765Z,155539.59
2022-09-12T12:18:23.307Z,155540.88
2022-09-12T12:20:54.155Z,155675.19
2022-09-12T12:23:30.227Z,155581.31
2022-09-12T12:26:05.428Z,155513.53
2022-09-12T12:29:01.149Z,155602.22
2022-09-12T12:31:31.307Z,155770.41
2022-09-12T12:34:25.153Z,155786.03
2022-09-12T12:36:55.333Z,155856.50
2022-09-12T12:40:01.438Z,155945.16
2022-09-12T12:43:06.307Z,156049.59
2022-09-12T12:46:09.193Z,156033.94
2022-09-12T12:49:13.465Z,156010.44
2022-09-12T12:51:47.288Z,155994.78
2022-09-12T12:54:55.916Z,156052.22
2022-09-12T12:57:42.723Z,155975.22
2022-09-12T13:00:33.455Z,155936.06
2022-09-12T13:03:12.396Z,155872.16
2022-09-12T13:05:44.722Z,155890.38
2022-09-12T13:08:32.067Z,155879.94
2022-09-12T13:11:05.702Z,155863.00
2022-09-12T13:13:41.213Z,155902.16
2022-09-12T13:16:31.812Z,155866.94
2022-09-12T13:19:06.841Z,155735.16
2022-09-12T13:21:38.458Z,155698.66
2022-09-12T13:24:17.294Z,155623.06
2022-09-12T13:26:50.543Z,155663.47
2022-09-12T13:29:22.312Z,155626.94
2022-09-12T13:31:59.249Z,155593.09
2022-09-12T13:34:33.629Z,155410.56
2022-09-12T13:37:30.599Z,155398.88
2022-09-12T13:40:13.871Z,155308.94
2022-09-12T13:42:45.491Z,155164.38
2022-09-12T13:45:23.294Z,155107.06
2022-09-12T13:47:59.847Z,155027.63
2022-09-12T13:50:33.807Z,155061.47
2022-09-12T13:53:07.517Z,155142.22
2022-09-12T13:55:40.017Z,155143.50
2022-09-12T13:58:20.421Z,155258.09
2022-09-12T14:01:02.962Z,155277.66
2022-09-12T14:03:50.394Z,155267.22
2022-09-12T14:06:21.213Z,155277.66
2022-09-12T14:08:51.722Z,155422.28
2022-09-12T14:11:28.693Z,155430.13
2022-09-12T14:13:58.873Z,155581.31
2022-09-12T14:16:30.129Z,155464.00
2022-09-12T14:19:03.003Z,155512.19
2022-09-12T14:21:39.328Z,155482.22
2022-09-12T14:24:13.332Z,155452.25
2022-09-12T14:26:45.631Z,155520.03
2022-09-12T14:29:19.111Z,155508.31
2022-09-12T14:31:49.751Z,155572.19
2022-09-12T14:34:22.915Z,155469.22
2022-09-12T14:36:56.376Z,155475.72
2022-09-12T14:39:29.246Z,155398.88
2022-09-12T14:42:09.568Z,155461.38
2022-09-12T14:44:40.425Z,155457.47
2022-09-12T14:47:22.640Z,155448.38
2022-09-12T14:49:55.654Z,155486.13
2022-09-12T14:52:29.780Z,155428.84
2022-09-12T14:55:01.991Z,155440.53
2022-09-12T14:57:39.017Z,155434.03
2022-09-12T15:00:22.780Z,155419.69
2022-09-12T15:02:53.880Z,155439.25
2022-09-12T15:05:31.209Z,155449.66
2022-09-12T15:08:06.317Z,155435.31
2022-09-12T15:10:40.574Z,155443.16
2022-09-12T15:13:26.029Z,155439.25
2022-09-12T15:15:58.166Z,155405.38
2022-09-12T15:18:30.235Z,155404.06
2022-09-12T15:21:07.877Z,155411.88
2022-09-12T15:23:40.691Z,155401.44
2022-09-12T15:26:13.398Z,155413.22
2022-09-12T15:28:43.920Z,155379.31
2022-09-12T15:31:18.894Z,155389.75
2022-09-12T15:33:49.117Z,155413.22
2022-09-12T15:36:24.412Z,155404.06
2022-09-12T15:38:55.748Z,155424.91
2022-09-12T15:41:30.329Z,155405.38
2022-09-12T15:44:01.804Z,155397.53
2022-09-12T15:46:33.595Z,155361.06
2022-09-12T15:49:04.150Z,155375.41
2022-09-12T15:51:37.454Z,155374.13
2022-09-12T15:54:08.079Z,155355.88
2022-09-12T15:56:38.438Z,155335.03
2022-09-12T15:59:08.709Z,155301.09
2022-09-12T16:01:38.917Z,155308.94
2022-09-12T16:04:24.135Z,155303.72
2022-09-12T16:06:58.013Z,155290.69
2022-09-12T16:09:28.279Z,155293.25
2022-09-12T16:11:58.603Z,155301.09
2022-09-12T16:14:29.124Z,155265.94
2022-09-12T16:16:59.499Z,155245.09
2022-09-12T16:19:29.712Z,155211.25
2022-09-12T16:22:03.031Z,155207.31
2022-09-12T16:24:33.565Z,155159.19
2022-09-12T16:27:04.170Z,155174.78
2022-09-12T16:29:34.655Z,155129.22
2022-09-12T16:32:05.547Z,155140.94
2022-09-12T16:34:35.665Z,155137.03
2022-09-12T16:37:08.779Z,155116.19
2022-09-12T16:39:39.424Z,155111.00
2022-09-12T16:42:10.635Z,155077.09
2022-09-12T16:44:41.160Z,155079.72
2022-09-12T16:47:11.483Z,155064.06
2022-09-12T16:49:41.678Z,155051.06
2022-09-12T16:52:17.047Z,154995.09
2022-09-12T16:54:47.874Z,154971.66
2022-09-12T16:57:21.167Z,154996.41
2022-09-12T16:59:51.731Z,154967.75
2022-09-12T17:02:22.369Z,154958.63
2022-09-12T17:04:53.161Z,154959.91
2022-09-12T17:07:29.662Z,154927.41
2022-09-12T17:10:00.485Z,154901.41
2022-09-12T17:12:33.292Z,154881.88
2022-09-12T17:15:04.106Z,154853.25
2022-09-12T17:17:34.412Z,154881.88
2022-09-12T17:20:05.219Z,154881.88
2022-09-12T17:22:38.398Z,154837.59
2022-09-12T17:25:09.941Z,154810.25
2022-09-12T17:27:40.415Z,154802.47
2022-09-12T17:30:12.568Z,154775.13
2022-09-12T17:32:44.219Z,154790.72
2022-09-12T17:35:14.293Z,154789.44
2022-09-12T17:37:47.230Z,154769.91
2022-09-12T17:40:17.922Z,154715.28
2022-09-12T17:42:48.556Z,154681.47
2022-09-12T17:45:19.798Z,154699.69
2022-09-12T17:47:50.083Z,154673.69
2022-09-12T17:50:31.581Z,154682.81
2022-09-12T17:53:05.435Z,154686.72
2022-09-12T17:55:38.175Z,154667.19
2022-09-12T17:58:08.890Z,154673.69
2022-09-12T18:00:52.956Z,154663.28
2022-09-12T18:03:26.120Z,154626.84
2022-09-12T18:05:58.513Z,154626.84
2022-09-12T18:08:31.778Z,154648.97
2022-09-12T18:11:07.656Z,154612.59
2022-09-12T18:13:38.830Z,154604.75
2022-09-12T18:16:12.254Z,154595.66
2022-09-12T18:18:43.713Z,154578.72
2022-09-12T18:21:15.426Z,154587.84
2022-09-12T18:23:48.579Z,154565.69
2022-09-12T18:26:19.040Z,154535.81
2022-09-12T18:28:49.546Z,154511.09
2022-09-12T18:31:22.049Z,154509.81
2022-09-12T18:33:56.510Z,154503.31
2022-09-12T18:36:27.187Z,154472.09
2022-09-12T18:39:01.369Z,154452.59
2022-09-12T18:41:32.658Z,154455.22
2022-09-12T18:44:04.978Z,154442.19
2022-09-12T18:46:37.292Z,154429.25
2022-09-12T18:49:08.052Z,154399.34
2022-09-12T18:51:41.950Z,154399.34
2022-09-12T18:54:18.105Z,154381.13
2022-09-12T18:56:48.347Z,154369.47
2022-09-12T18:59:18.627Z,154390.25
2022-09-12T19:01:50.690Z,154365.56
2022-09-12T19:04:21.190Z,154356.44
2022-09-12T19:06:51.806Z,154334.38
2022-09-12T19:09:25.221Z,154370.75
2022-09-12T19:11:55.411Z,154353.88
2022-09-12T19:14:27.674Z,154375.94
2022-09-12T19:16:58.119Z,154331.75
2022-09-12T19:19:28.565Z,154296.63
2022-09-12T19:21:58.922Z,154309.66
2022-09-12T19:24:32.272Z,154304.44
2022-09-12T19:27:02.512Z,154290.16
2022-09-12T19:29:32.814Z,154255.06
2022-09-12T19:32:02.890Z,154253.75
2022-09-12T19:34:33.222Z,154247.25
2022-09-12T19:37:03.378Z,154229.06
2022-09-12T19:39:39.579Z,154268.03
2022-09-12T19:42:09.994Z,154252.47
2022-09-12T19:44:40.131Z,154230.41
2022-09-12T19:47:11.377Z,154216.09
2022-09-12T19:49:41.761Z,154195.31
2022-09-12T19:52:16.843Z,154223.88
2022-09-12T19:54:50.345Z,154229.06
2022-09-12T19:57:20.960Z,154227.78
2022-09-12T19:59:51.306Z,154181.03
2022-09-12T20:02:21.580Z,154177.13
2022-09-12T20:04:51.869Z,154190.13
2022-09-12T20:07:22.198Z,154200.53
2022-09-12T20:09:55.414Z,154187.50
2022-09-12T20:12:25.514Z,154195.31
2022-09-12T20:14:55.824Z,154170.66
2022-09-12T20:17:26.048Z,154182.31
2022-09-12T20:19:56.295Z,154162.84
2022-09-12T20:22:26.788Z,154152.44
2022-09-12T20:24:59.926Z,154142.06
2022-09-12T20:27:30.441Z,154181.03
2022-09-12T20:30:00.599Z,154164.13
2022-09-12T20:32:31.003Z,154145.97
2022-09-12T20:35:01.317Z,154138.16
2022-09-12T20:37:33.130Z,154121.28
2022-09-12T20:40:06.532Z,154083.63
2022-09-12T20:42:36.779Z,154118.66
2022-09-12T20:45:08.454Z,154118.66
2022-09-12T20:47:39.028Z,154070.63
2022-09-12T20:50:10.016Z,154055.03
2022-09-12T20:52:40.042Z,154071.94
2022-09-12T20:55:13.985Z,154039.47
2022-09-12T20:57:44.088Z,154008.28
2022-09-12T21:00:15.514Z,153999.19
2022-09-12T21:02:45.729Z,153999.19
2022-09-12T21:05:16.216Z,153973.22
2022-09-12T21:07:46.417Z,153952.47
2022-09-12T21:10:19.661Z,154001.78
2022-09-12T21:12:49.903Z,153968.03
2022-09-12T21:15:20.477Z,153973.22
2022-09-12T21:17:50.592Z,153982.31
2022-09-12T21:20:20.839Z,153984.88
2022-09-12T21:22:51.186Z,153929.09
2022-09-12T21:25:24.192Z,153887.56
2022-09-12T21:27:54.272Z,153918.72
2022-09-12T21:30:24.567Z,153883.66
2022-09-12T21:32:54.856Z,153864.19
2022-09-12T21:35:25.080Z,153896.63
2022-09-12T21:37:55.799Z,153865.47
2022-09-12T21:40:29.133Z,153877.13
2022-09-12T21:42:59.323Z,153849.91
2022-09-12T21:45:29.981Z,153855.09
2022-09-12T21:48:00.726Z,153900.50
2022-09-12T21:50:31.045Z,153895.31
2022-09-12T21:53:01.267Z,153884.94
2022-09-12T21:55:34.506Z,153881.03
2022-09-12T21:58:05.208Z,153875.84
2022-09-12T22:00:35.820Z,153882.38
2022-09-12T22:03:06.591Z,153907.00
2022-09-12T22:05:37.744Z,153903.13
2022-09-12T22:08:08.013Z,153896.63
2022-09-12T22:10:41.655Z,153870.66
2022-09-12T22:13:11.415Z,153887.56
2022-09-12T22:15:41.868Z,153908.31
2022-09-12T22:18:12.329Z,153913.50
2022-09-12T22:20:42.776Z,153891.44
2022-09-12T22:23:27.489Z,153874.56
2022-09-12T22:26:01.439Z,153874.56
2022-09-12T22:28:32.895Z,153826.53
2022-09-12T22:31:03.922Z,153830.44
2022-09-12T22:33:34.276Z,153791.50
2022-09-12T22:36:04.643Z,153774.66
2022-09-12T22:38:35.057Z,153800.59
2022-09-12T22:41:15.299Z,153810.97
2022-09-12T22:43:45.447Z,153795.41
2022-09-12T22:46:15.954Z,153768.13
2022-09-12T22:48:48.761Z,153760.38
2022-09-12T22:51:19.335Z,153720.19
2022-09-12T22:53:49.445Z,153720.19
2022-09-12T22:56:22.721Z,153740.94
2022-09-12T22:58:53.004Z,153700.72
2022-09-12T23:01:24.125Z,153716.28
2022-09-12T23:03:54.215Z,153689.00
2022-09-12T23:06:24.452Z,153651.38
2022-09-12T23:08:56.268Z,153678.59
2022-09-12T23:11:29.114Z,153703.28
2022-09-12T23:13:59.583Z,153677.31
2022-09-12T23:16:32.243Z,153663.03
2022-09-12T23:19:02.815Z,153703.28
2022-09-12T23:21:33.132Z,153691.56
2022-09-12T23:24:03.446Z,153704.63
2022-09-12T23:26:36.400Z,153677.31
2022-09-12T23:29:07.665Z,153650.09
2022-09-12T23:31:38.715Z,153646.19
2022-09-12T23:34:09.396Z,153591.72
2022-09-12T23:36:39.620Z,153603.38
2022-09-12T23:39:09.840Z,153593.00
2022-09-12T23:41:43.329Z,153604.72
2022-09-12T23:44:13.575Z,153616.34
2022-09-12T23:46:43.873Z,153589.09
2022-09-12T23:49:14.097Z,153576.16
2022-09-12T23:51:44.920Z,153590.44
2022-09-12T23:54:15.003Z,153520.38
2022-09-12T23:56:48.246Z,153572.25
2022-09-12T23:59:18.475Z,153547.63
